Terminal Aerodrome Forecast
Issued by NWS

Home | Current Version | Previous Version | Text Only | Print | Product List | Glossary On
Versions: 1 2 3 4 5 6 7 8 9 10 11 12 13 14 15 16 17 18 19 20 21 22 23 24 25 26 27 28 29 30 31
000
FTUS42 KGSP 270812 AAA
TAFHKY
TAF AMD
KHKY 270812Z 2708/2806 34006KT P6SM VCSH OVC050
     FM271100 03005KT 6SM -SHRA BR OVC020
     FM271400 03006KT P6SM OVC020
     FM271800 36006KT P6SM BKN045
     FM280100 32006KT P6SM BKN080=

USA.gov is the U.S. government's official web portal to all federal, state and local government web resources and services.